AAL856 KSAT-KORD
Flight info
| Callsign | AAL856 |
|---|---|
| Flight time | N/A |
| Altitude | 39000 |
| Route | YODUH2 KLNGR FUZ MLC SGF WELTS TRTLL6 |
| Aircraft | A20N/M-SDE2E3FGHIJ1RWXY/LB1 |
Departure
| Time | N/A |
|---|---|
| Airport | San Antonio International Airport (KSAT) |
Arrival
| Time | 2026-05-03 20:56 |
|---|---|
| Airport | Chicago O'Hare International Airport (KORD) |
| Time | Latitude | Longitude | Altitude | Speed | Heading |
|---|---|---|---|---|---|
| 2026-05-03 20:15 | 39.52577 | -90.95698 | 39016 ft | 476 kts | 44° |
| 2026-05-03 20:15 | 39.56760 | -90.89032 | 38928 ft | 477 kts | 44° |
| 2026-05-03 20:16 | 39.60942 | -90.82352 | 38930 ft | 477 kts | 44° |
| 2026-05-03 20:16 | 39.65124 | -90.75656 | 38929 ft | 478 kts | 44° |
| 2026-05-03 20:17 | 39.69306 | -90.68948 | 38927 ft | 478 kts | 44° |
| 2026-05-03 20:17 | 39.73484 | -90.62229 | 38927 ft | 478 kts | 44° |
| 2026-05-03 20:18 | 39.77656 | -90.55508 | 38923 ft | 478 kts | 44° |
| 2026-05-03 20:18 | 39.81825 | -90.48776 | 38921 ft | 478 kts | 45° |
| 2026-05-03 20:19 | 39.85993 | -90.42031 | 38926 ft | 478 kts | 45° |
| 2026-05-03 20:19 | 39.90153 | -90.35287 | 38923 ft | 478 kts | 45° |
| 2026-05-03 20:20 | 39.94311 | -90.28532 | 38922 ft | 478 kts | 44° |
| 2026-05-03 20:20 | 39.98955 | -90.22500 | 38924 ft | 468 kts | 34° |
| 2026-05-03 20:21 | 40.03884 | -90.16972 | 38921 ft | 468 kts | 34° |
| 2026-05-03 20:21 | 40.08825 | -90.11435 | 38913 ft | 468 kts | 34° |
| 2026-05-03 20:21 | 40.11283 | -90.08670 | 38712 ft | 463 kts | 34° |
| 2026-05-03 20:22 | 40.13707 | -90.05935 | 38463 ft | 457 kts | 34° |
| 2026-05-03 20:22 | 40.16105 | -90.03229 | 38182 ft | 455 kts | 33° |
| 2026-05-03 20:22 | 40.18499 | -90.00529 | 37908 ft | 454 kts | 33° |
| 2026-05-03 20:22 | 40.20890 | -89.97829 | 37634 ft | 455 kts | 33° |
| 2026-05-03 20:23 | 40.23286 | -89.95120 | 37370 ft | 455 kts | 33° |
| 2026-05-03 20:23 | 40.25678 | -89.92413 | 37106 ft | 455 kts | 33° |
| 2026-05-03 20:23 | 40.28073 | -89.89700 | 36834 ft | 455 kts | 32° |
| 2026-05-03 20:23 | 40.30468 | -89.86982 | 36581 ft | 456 kts | 32° |
| 2026-05-03 20:24 | 40.32858 | -89.84270 | 36327 ft | 456 kts | 32° |
| 2026-05-03 20:24 | 40.35243 | -89.81558 | 36075 ft | 456 kts | 32° |
| 2026-05-03 20:24 | 40.37647 | -89.78823 | 35820 ft | 456 kts | 32° |
| 2026-05-03 20:24 | 40.40044 | -89.76093 | 35575 ft | 457 kts | 31° |
| 2026-05-03 20:25 | 40.42442 | -89.73359 | 35325 ft | 457 kts | 31° |
| 2026-05-03 20:25 | 40.44835 | -89.70626 | 34885 ft | 454 kts | 31° |
| 2026-05-03 20:25 | 40.47217 | -89.67905 | 34258 ft | 456 kts | 30° |
| 2026-05-03 20:25 | 40.49619 | -89.65161 | 33568 ft | 458 kts | 30° |
| 2026-05-03 20:26 | 40.52025 | -89.62411 | 32848 ft | 459 kts | 30° |
| 2026-05-03 20:26 | 40.54431 | -89.59656 | 32161 ft | 459 kts | 30° |
| 2026-05-03 20:26 | 40.56837 | -89.56898 | 31454 ft | 459 kts | 31° |
| 2026-05-03 20:26 | 40.59253 | -89.54125 | 30732 ft | 461 kts | 31° |
| 2026-05-03 20:27 | 40.61667 | -89.51353 | 30007 ft | 462 kts | 31° |
| 2026-05-03 20:27 | 40.64093 | -89.48563 | 29142 ft | 464 kts | 31° |
| 2026-05-03 20:27 | 40.66521 | -89.45767 | 28434 ft | 462 kts | 32° |
| 2026-05-03 20:27 | 40.68924 | -89.42990 | 27953 ft | 456 kts | 32° |
| 2026-05-03 20:28 | 40.71292 | -89.40252 | 27415 ft | 451 kts | 32° |
| 2026-05-03 20:28 | 40.73639 | -89.37533 | 26859 ft | 447 kts | 32° |
| 2026-05-03 20:28 | 40.75953 | -89.34801 | 26287 ft | 446 kts | 33° |
| 2026-05-03 20:28 | 40.78256 | -89.32063 | 25712 ft | 446 kts | 33° |
| 2026-05-03 20:29 | 40.80556 | -89.29321 | 25140 ft | 444 kts | 33° |
| 2026-05-03 20:29 | 40.82842 | -89.26594 | 24563 ft | 442 kts | 33° |
| 2026-05-03 20:29 | 40.85112 | -89.23882 | 23996 ft | 439 kts | 34° |
| 2026-05-03 20:29 | 40.87374 | -89.21179 | 23424 ft | 437 kts | 34° |
| 2026-05-03 20:30 | 40.89619 | -89.18494 | 22786 ft | 434 kts | 34° |
| 2026-05-03 20:30 | 40.91843 | -89.15830 | 22228 ft | 429 kts | 34° |
| 2026-05-03 20:30 | 40.94042 | -89.13193 | 21675 ft | 424 kts | 34° |
| 2026-05-03 20:30 | 40.96187 | -89.10619 | 21152 ft | 420 kts | 34° |
| 2026-05-03 20:31 | 40.98338 | -89.08037 | 20603 ft | 415 kts | 34° |
| 2026-05-03 20:31 | 41.00493 | -89.05448 | 20058 ft | 411 kts | 35° |
| 2026-05-03 20:31 | 41.02602 | -89.02913 | 19488 ft | 408 kts | 35° |
| 2026-05-03 20:31 | 41.04692 | -89.00397 | 19067 ft | 403 kts | 35° |
| 2026-05-03 20:32 | 41.06757 | -88.97910 | 18622 ft | 401 kts | 35° |
| 2026-05-03 20:32 | 41.08814 | -88.95432 | 18093 ft | 399 kts | 36° |
| 2026-05-03 20:32 | 41.10832 | -88.92998 | 17525 ft | 396 kts | 36° |
| 2026-05-03 20:32 | 41.12861 | -88.90545 | 17012 ft | 392 kts | 36° |
| 2026-05-03 20:33 | 41.14873 | -88.88113 | 16509 ft | 390 kts | 36° |
| 2026-05-03 20:33 | 41.16894 | -88.85668 | 15998 ft | 387 kts | 36° |
| 2026-05-03 20:33 | 41.18848 | -88.83303 | 15508 ft | 384 kts | 36° |
| 2026-05-03 20:33 | 41.20810 | -88.80925 | 15008 ft | 381 kts | 36° |
| 2026-05-03 20:34 | 41.22759 | -88.78562 | 14535 ft | 378 kts | 36° |
| 2026-05-03 20:34 | 41.24695 | -88.76213 | 14061 ft | 375 kts | 36° |
| 2026-05-03 20:34 | 41.26611 | -88.73885 | 13579 ft | 373 kts | 36° |
| 2026-05-03 20:34 | 41.28519 | -88.71567 | 13082 ft | 370 kts | 37° |
| 2026-05-03 20:35 | 41.30407 | -88.69271 | 12622 ft | 367 kts | 37° |
| 2026-05-03 20:35 | 41.32284 | -88.66987 | 12153 ft | 364 kts | 37° |
| 2026-05-03 20:35 | 41.34143 | -88.64722 | 11699 ft | 361 kts | 37° |
| 2026-05-03 20:35 | 41.35954 | -88.62515 | 11263 ft | 359 kts | 37° |
| 2026-05-03 20:36 | 41.37862 | -88.60217 | 10978 ft | 356 kts | 37° |
| 2026-05-03 20:36 | 41.39671 | -88.58065 | 10723 ft | 349 kts | 37° |
| 2026-05-03 20:36 | 41.41430 | -88.55972 | 10491 ft | 331 kts | 37° |
| 2026-05-03 20:36 | 41.43092 | -88.53989 | 10345 ft | 309 kts | 37° |
| 2026-05-03 20:37 | 41.44650 | -88.52135 | 10231 ft | 297 kts | 36° |
| 2026-05-03 20:37 | 41.46210 | -88.50287 | 10108 ft | 301 kts | 36° |
| 2026-05-03 20:37 | 41.47782 | -88.48426 | 9990 ft | 303 kts | 36° |
| 2026-05-03 20:37 | 41.49351 | -88.46562 | 9850 ft | 303 kts | 37° |
| 2026-05-03 20:38 | 41.50923 | -88.44690 | 9682 ft | 302 kts | 36° |
| 2026-05-03 20:38 | 41.52487 | -88.42827 | 9538 ft | 302 kts | 37° |
| 2026-05-03 20:38 | 41.54056 | -88.40956 | 9384 ft | 303 kts | 37° |
| 2026-05-03 20:38 | 41.55624 | -88.39086 | 9232 ft | 303 kts | 37° |
| 2026-05-03 20:39 | 41.57193 | -88.37210 | 9092 ft | 303 kts | 37° |
| 2026-05-03 20:39 | 41.58766 | -88.35331 | 9014 ft | 303 kts | 37° |
| 2026-05-03 20:39 | 41.60336 | -88.33453 | 8848 ft | 304 kts | 37° |
| 2026-05-03 20:39 | 41.61402 | -88.32180 | 8696 ft | 303 kts | 37° |
| 2026-05-03 20:40 | 41.63401 | -88.29800 | 8506 ft | 303 kts | 37° |
| 2026-05-03 20:40 | 41.64983 | -88.27919 | 8369 ft | 304 kts | 37° |
| 2026-05-03 20:40 | 41.66563 | -88.26040 | 8215 ft | 304 kts | 37° |
| 2026-05-03 20:40 | 41.68142 | -88.24160 | 8071 ft | 304 kts | 38° |
| 2026-05-03 20:41 | 41.69718 | -88.22282 | 7915 ft | 303 kts | 38° |
| 2026-05-03 20:41 | 41.71291 | -88.20406 | 7772 ft | 304 kts | 38° |
| 2026-05-03 20:41 | 41.72868 | -88.18526 | 7610 ft | 304 kts | 38° |
| 2026-05-03 20:41 | 41.74446 | -88.16643 | 7476 ft | 304 kts | 38° |
| 2026-05-03 20:42 | 41.76018 | -88.14764 | 7324 ft | 303 kts | 38° |
| 2026-05-03 20:42 | 41.77598 | -88.12875 | 7157 ft | 304 kts | 38° |
| 2026-05-03 20:42 | 41.79141 | -88.11028 | 7014 ft | 304 kts | 39° |
| 2026-05-03 20:42 | 41.80699 | -88.09119 | 6853 ft | 304 kts | 41° |
| 2026-05-03 20:43 | 41.82219 | -88.07140 | 6713 ft | 305 kts | 42° |
| 2026-05-03 20:43 | 41.83726 | -88.05145 | 6561 ft | 305 kts | 42° |
| 2026-05-03 20:43 | 41.85232 | -88.03145 | 6413 ft | 304 kts | 42° |
| 2026-05-03 20:43 | 41.86736 | -88.01145 | 6248 ft | 305 kts | 43° |
| 2026-05-03 20:44 | 41.88014 | -87.98879 | 6083 ft | 307 kts | 66° |
| 2026-05-03 20:44 | 41.88484 | -87.96181 | 5924 ft | 302 kts | 89° |
| 2026-05-03 20:44 | 41.88531 | -87.93396 | 5765 ft | 300 kts | 94° |
| 2026-05-03 20:44 | 41.88508 | -87.90592 | 5617 ft | 301 kts | 95° |
| 2026-05-03 20:45 | 41.88482 | -87.87776 | 5474 ft | 301 kts | 95° |
| 2026-05-03 20:45 | 41.88464 | -87.84973 | 5324 ft | 300 kts | 95° |
| 2026-05-03 20:45 | 41.88451 | -87.82176 | 5196 ft | 300 kts | 95° |
| 2026-05-03 20:45 | 41.88441 | -87.79375 | 5056 ft | 300 kts | 95° |
| 2026-05-03 20:46 | 41.88436 | -87.76587 | 5015 ft | 299 kts | 95° |
| 2026-05-03 20:46 | 41.88432 | -87.73800 | 5010 ft | 299 kts | 95° |
| 2026-05-03 20:46 | 41.88427 | -87.71005 | 5012 ft | 300 kts | 95° |
| 2026-05-03 20:46 | 41.88421 | -87.68197 | 5010 ft | 300 kts | 95° |
| 2026-05-03 20:47 | 41.88416 | -87.65402 | 5014 ft | 300 kts | 95° |
| 2026-05-03 20:47 | 41.88410 | -87.62612 | 5017 ft | 300 kts | 95° |
| 2026-05-03 20:47 | 41.88404 | -87.59803 | 5016 ft | 300 kts | 95° |
| 2026-05-03 20:47 | 41.88398 | -87.57031 | 5001 ft | 291 kts | 95° |
| 2026-05-03 20:48 | 41.88605 | -87.54398 | 5003 ft | 279 kts | 77° |
| 2026-05-03 20:48 | 41.89063 | -87.52819 | 4997 ft | 270 kts | 60° |
| 2026-05-03 20:48 | 41.90268 | -87.50979 | 5003 ft | 260 kts | 30° |
| 2026-05-03 20:48 | 41.91904 | -87.50140 | 5012 ft | 247 kts | 355° |
| 2026-05-03 20:49 | 41.93527 | -87.50431 | 5018 ft | 230 kts | 328° |
| 2026-05-03 20:49 | 41.94830 | -87.51526 | 5018 ft | 214 kts | 306° |
| 2026-05-03 20:49 | 41.95805 | -87.52996 | 5015 ft | 210 kts | 299° |
| 2026-05-03 20:49 | 41.96702 | -87.54548 | 5014 ft | 211 kts | 298° |
| 2026-05-03 20:50 | 41.97593 | -87.56114 | 5006 ft | 211 kts | 297° |
| 2026-05-03 20:50 | 41.98348 | -87.57765 | 5009 ft | 203 kts | 284° |
| 2026-05-03 20:50 | 41.98708 | -87.59559 | 4988 ft | 197 kts | 271° |
| 2026-05-03 20:50 | 41.98813 | -87.61379 | 4839 ft | 193 kts | 265° |
| 2026-05-03 20:51 | 41.98827 | -87.63143 | 4597 ft | 185 kts | 264° |
| 2026-05-03 20:51 | 41.98827 | -87.64863 | 4276 ft | 182 kts | 263° |
| 2026-05-03 20:51 | 41.98830 | -87.66548 | 3983 ft | 178 kts | 263° |
| 2026-05-03 20:51 | 41.98831 | -87.68193 | 3736 ft | 175 kts | 263° |
| 2026-05-03 20:52 | 41.98831 | -87.69824 | 3507 ft | 175 kts | 263° |
| 2026-05-03 20:52 | 41.98831 | -87.71455 | 3270 ft | 174 kts | 262° |
| 2026-05-03 20:52 | 41.98832 | -87.73048 | 3057 ft | 167 kts | 262° |
| 2026-05-03 20:52 | 41.98832 | -87.74590 | 2803 ft | 160 kts | 262° |
| 2026-05-03 20:53 | 41.98834 | -87.76023 | 2587 ft | 147 kts | 261° |
| 2026-05-03 20:53 | 41.98836 | -87.77322 | 2422 ft | 133 kts | 260° |
| 2026-05-03 20:53 | 41.98833 | -87.78548 | 2248 ft | 130 kts | 260° |
| 2026-05-03 20:53 | 41.98830 | -87.79763 | 2069 ft | 131 kts | 261° |
| 2026-05-03 20:54 | 41.98830 | -87.80990 | 1896 ft | 131 kts | 262° |
| 2026-05-03 20:54 | 41.98831 | -87.83440 | 1529 ft | 131 kts | 261° |
| 2026-05-03 20:54 | 41.98829 | -87.84672 | 1338 ft | 134 kts | 263° |
| 2026-05-03 20:55 | 41.98829 | -87.85934 | 1142 ft | 137 kts | 264° |
| 2026-05-03 20:55 | 41.98836 | -87.87216 | 926 ft | 137 kts | 262° |
| 2026-05-03 20:55 | 41.98855 | -87.88477 | 780 ft | 134 kts | 258° |
| 2026-05-03 20:55 | 41.98827 | -87.89716 | 699 ft | 130 kts | 261° |
| 2026-05-03 20:56 | 41.98839 | -87.90897 | 677 ft | 121 kts | 259° |
| 2026-05-03 20:56 | 41.98820 | -87.91916 | 672 ft | 89 kts | 269° |
| 2026-05-03 20:56 | 41.98824 | -87.92505 | 676 ft | 49 kts | 270° |
| 2026-05-03 20:56 | 41.98822 | -87.92919 | 674 ft | 22 kts | 269° |
| 2026-05-03 20:57 | 41.98739 | -87.93016 | 674 ft | 18 kts | 176° |
| 2026-05-03 20:57 | 41.98707 | -87.93012 | 674 ft | 0 kts | 174° |
| 2026-05-03 20:57 | 41.98691 | -87.93010 | 674 ft | 7 kts | 176° |
| 2026-05-03 20:58 | 41.98606 | -87.93006 | 674 ft | 18 kts | 180° |
| 2026-05-03 20:58 | 41.98470 | -87.93009 | 674 ft | 20 kts | 180° |
| 2026-05-03 20:58 | 41.98332 | -87.93012 | 674 ft | 20 kts | 181° |
| 2026-05-03 20:58 | 41.98194 | -87.93010 | 674 ft | 18 kts | 179° |
| 2026-05-03 20:59 | 41.98101 | -87.92939 | 673 ft | 17 kts | 97° |
| 2026-05-03 20:59 | 41.98074 | -87.92795 | 673 ft | 16 kts | 159° |
| 2026-05-03 20:59 | 41.97961 | -87.92787 | 674 ft | 17 kts | 180° |
| 2026-05-03 20:59 | 41.97824 | -87.92796 | 672 ft | 22 kts | 184° |
| 2026-05-03 21:00 | 41.97659 | -87.92784 | 674 ft | 24 kts | 161° |
| 2026-05-03 21:00 | 41.97574 | -87.92693 | 674 ft | 24 kts | 149° |
| 2026-05-03 21:00 | 41.97360 | -87.92665 | 674 ft | 24 kts | 181° |
| 2026-05-03 21:00 | 41.97278 | -87.92658 | 674 ft | 0 kts | 171° |
| 2026-05-03 21:01 | 41.97268 | -87.92652 | 674 ft | 4 kts | 151° |
| 2026-05-03 21:01 | 41.97244 | -87.92585 | 674 ft | 14 kts | 88° |
| 2026-05-03 21:01 | 41.97247 | -87.92420 | 674 ft | 21 kts | 91° |
| 2026-05-03 21:01 | 41.97244 | -87.92185 | 674 ft | 29 kts | 91° |
| 2026-05-03 21:02 | 41.97245 | -87.91906 | 674 ft | 30 kts | 90° |
| 2026-05-03 21:02 | 41.97248 | -87.91632 | 674 ft | 29 kts | 89° |
| 2026-05-03 21:02 | 41.97249 | -87.91373 | 674 ft | 27 kts | 87° |
| 2026-05-03 21:02 | 41.97254 | -87.91132 | 674 ft | 25 kts | 89° |
| 2026-05-03 21:03 | 41.97253 | -87.90904 | 673 ft | 23 kts | 92° |
| 2026-05-03 21:03 | 41.97239 | -87.90705 | 673 ft | 20 kts | 104° |
| 2026-05-03 21:03 | 41.97222 | -87.90521 | 673 ft | 20 kts | 95° |
| 2026-05-03 21:03 | 41.97210 | -87.90339 | 673 ft | 19 kts | 94° |
| 2026-05-03 21:04 | 41.97203 | -87.90162 | 673 ft | 19 kts | 90° |
| 2026-05-03 21:04 | 41.97205 | -87.89991 | 673 ft | 18 kts | 89° |
| 2026-05-03 21:04 | 41.97231 | -87.89828 | 673 ft | 18 kts | 69° |
| 2026-05-03 21:04 | 41.97290 | -87.89690 | 671 ft | 17 kts | 56° |
| 2026-05-03 21:05 | 41.97359 | -87.89569 | 673 ft | 15 kts | 42° |
| 2026-05-03 21:05 | 41.97453 | -87.89528 | 673 ft | 9 kts | 10° |
| 2026-05-03 21:05 | 41.97491 | -87.89519 | 674 ft | 0 kts | 3° |
| 2026-05-03 21:06 | 41.97494 | -87.89520 | 674 ft | 2 kts | 348° |
| 2026-05-03 21:06 | 41.97509 | -87.89542 | 674 ft | 5 kts | 313° |
| 2026-05-03 21:06 | 41.97541 | -87.89596 | 674 ft | 10 kts | 307° |
| 2026-05-03 21:06 | 41.97582 | -87.89677 | 674 ft | 10 kts | 300° |
| 2026-05-03 21:07 | 41.97603 | -87.89762 | 674 ft | 10 kts | 282° |
| 2026-05-03 21:07 | 41.97580 | -87.89816 | 672 ft | 7 kts | 206° |
| 2026-05-03 21:07 | 41.97536 | -87.89834 | 673 ft | 6 kts | 199° |
| 2026-05-03 21:07 | 41.97524 | -87.89840 | 674 ft | 0 kts | 198° |